sensor_id;sensor_type;location;lat;lon;timestamp;pressure;altitude;pressure_sealevel;temperature;humidity
72570;BME280;60594;50.204;8.844;2022-11-12T00:02:27;101736.50;;;6.30;100.00
72570;BME280;60594;50.204;8.844;2022-11-12T00:05:12;101729.34;;;6.32;100.00
72570;BME280;60594;50.204;8.844;2022-11-12T00:07:57;101729.94;;;6.40;100.00
72570;BME280;60594;50.204;8.844;2022-11-12T00:10:43;101730.16;;;6.34;100.00
72570;BME280;60594;50.204;8.844;2022-11-12T00:13:28;101733.72;;;6.33;100.00
72570;BME280;60594;50.204;8.844;2022-11-12T00:16:13;101737.38;;;6.31;100.00
72570;BME280;60594;50.204;8.844;2022-11-12T00:18:58;101734.94;;;6.25;100.00
72570;BME280;60594;50.204;8.844;2022-11-12T00:21:43;101738.81;;;6.61;100.00
72570;BME280;60594;50.204;8.844;2022-11-12T00:24:28;101729.56;;;6.49;100.00
72570;BME280;60594;50.204;8.844;2022-11-12T00:27:13;101734.69;;;6.75;100.00
72570;BME280;60594;50.204;8.844;2022-11-12T00:29:58;101716.19;;;6.52;100.00
72570;BME280;60594;50.204;8.844;2022-11-12T00:32:43;101730.44;;;6.71;100.00
72570;BME280;60594;50.204;8.844;2022-11-12T00:35:28;101736.78;;;6.89;100.00
72570;BME280;60594;50.204;8.844;2022-11-12T00:38:14;101734.25;;;6.86;100.00
72570;BME280;60594;50.204;8.844;2022-11-12T00:40:59;101720.94;;;6.87;100.00
72570;BME280;60594;50.204;8.844;2022-11-12T00:43:44;101736.06;;;6.85;100.00
72570;BME280;60594;50.204;8.844;2022-11-12T00:46:29;101740.53;;;6.83;100.00
72570;BME280;60594;50.204;8.844;2022-11-12T00:49:14;101734.69;;;6.75;100.00
72570;BME280;60594;50.204;8.844;2022-11-12T00:51:59;101728.59;;;6.73;100.00
72570;BME280;60594;50.204;8.844;2022-11-12T00:54:44;101716.75;;;6.82;100.00
72570;BME280;60594;50.204;8.844;2022-11-12T00:57:29;101723.41;;;6.92;100.00
72570;BME280;60594;50.204;8.844;2022-11-12T01:00:16;101719.69;;;6.96;100.00
72570;BME280;60594;50.204;8.844;2022-11-12T01:03:02;101722.06;;;7.03;100.00
72570;BME280;60594;50.204;8.844;2022-11-12T01:05:47;101722.06;;;7.03;100.00
72570;BME280;60594;50.204;8.844;2022-11-12T01:08:32;101722.91;;;7.04;100.00
72570;BME280;60594;50.204;8.844;2022-11-12T01:11:20;101720.88;;;6.67;100.00
72570;BME280;60594;50.204;8.844;2022-11-12T01:14:07;101724.22;;;6.51;100.00
72570;BME280;60594;50.204;8.844;2022-11-12T01:16:52;101733.19;;;6.68;100.00
72570;BME280;60594;50.204;8.844;2022-11-12T01:19:37;101729.72;;;6.68;100.00
72570;BME280;60594;50.204;8.844;2022-11-12T01:22:22;101729.28;;;6.34;100.00
72570;BME280;60594;50.204;8.844;2022-11-12T01:25:07;101723.81;;;6.38;100.00
72570;BME280;60594;50.204;8.844;2022-11-12T01:27:52;101728.09;;;6.64;100.00
72570;BME280;60594;50.204;8.844;2022-11-12T01:30:37;101713.56;;;6.74;100.00
72570;BME280;60594;50.204;8.844;2022-11-12T01:33:22;101713.25;;;6.81;100.00
72570;BME280;60594;50.204;8.844;2022-11-12T01:36:08;101698.34;;;6.79;100.00
72570;BME280;60594;50.204;8.844;2022-11-12T01:38:54;101705.13;;;6.64;100.00
72570;BME280;60594;50.204;8.844;2022-11-12T01:41:40;101709.84;;;6.35;100.00
72570;BME280;60594;50.204;8.844;2022-11-12T01:44:29;101712.03;;;6.01;100.00
72570;BME280;60594;50.204;8.844;2022-11-12T01:47:20;101717.09;;;5.84;100.00
72570;BME280;60594;50.204;8.844;2022-11-12T01:50:14;101714.00;;;5.96;100.00
72570;BME280;60594;50.204;8.844;2022-11-12T01:53:07;101722.38;;;6.30;100.00
72570;BME280;60594;50.204;8.844;2022-11-12T01:55:54;101713.72;;;6.26;100.00
72570;BME280;60594;50.204;8.844;2022-11-12T01:58:41;101719.59;;;6.11;100.00
72570;BME280;60594;50.204;8.844;2022-11-12T02:01:26;101723.38;;;5.81;100.00
72570;BME280;60594;50.204;8.844;2022-11-12T02:04:12;101714.22;;;5.90;100.00
72570;BME280;60594;50.204;8.844;2022-11-12T02:06:57;101694.78;;;5.91;100.00
72570;BME280;60594;50.204;8.844;2022-11-12T02:09:42;101718.75;;;5.86;100.00
72570;BME280;60594;50.204;8.844;2022-11-12T02:12:27;101712.75;;;5.83;100.00
72570;BME280;60594;50.204;8.844;2022-11-12T02:15:32;101708.72;;;5.96;100.00
72570;BME280;60594;50.204;8.844;2022-11-12T02:18:17;101700.28;;;6.08;100.00
72570;BME280;60594;50.204;8.844;2022-11-12T02:21:04;101707.56;;;6.03;100.00
72570;BME280;60594;50.204;8.844;2022-11-12T02:26:48;101714.88;;;5.72;100.00
72570;BME280;60594;50.204;8.844;2022-11-12T02:29:35;101713.19;;;5.69;100.00
72570;BME280;60594;50.204;8.844;2022-11-12T02:32:20;101719.81;;;5.82;100.00
72570;BME280;60594;50.204;8.844;2022-11-12T02:35:05;101708.53;;;6.00;100.00
72570;BME280;60594;50.204;8.844;2022-11-12T02:37:51;101704.06;;;6.25;100.00
72570;BME280;60594;50.204;8.844;2022-11-12T02:40:35;101711.06;;;6.03;100.00
72570;BME280;60594;50.204;8.844;2022-11-12T02:43:20;101721.81;;;5.99;100.00
72570;BME280;60594;50.204;8.844;2022-11-12T02:46:05;101725.31;;;5.75;100.00
72570;BME280;60594;50.204;8.844;2022-11-12T02:48:50;101720.59;;;5.84;100.00
72570;BME280;60594;50.204;8.844;2022-11-12T02:51:35;101724.22;;;5.82;100.00
72570;BME280;60594;50.204;8.844;2022-11-12T02:54:20;101724.53;;;5.73;100.00
72570;BME280;60594;50.204;8.844;2022-11-12T02:57:05;101722.50;;;5.79;100.00
72570;BME280;60594;50.204;8.844;2022-11-12T02:59:49;101718.41;;;5.71;100.00
72570;BME280;60594;50.204;8.844;2022-11-12T03:02:34;101713.22;;;5.68;100.00
72570;BME280;60594;50.204;8.844;2022-11-12T03:05:31;101715.81;;;5.94;100.00
72570;BME280;60594;50.204;8.844;2022-11-12T03:08:16;101718.72;;;6.11;100.00
72570;BME280;60594;50.204;8.844;2022-11-12T03:11:06;101720.66;;;6.29;100.00
72570;BME280;60594;50.204;8.844;2022-11-12T03:13:51;101707.38;;;6.30;100.00
72570;BME280;60594;50.204;8.844;2022-11-12T03:16:36;101705.38;;;6.14;100.00
72570;BME280;60594;50.204;8.844;2022-11-12T03:19:21;101717.03;;;6.31;100.00
72570;BME280;60594;50.204;8.844;2022-11-12T03:22:06;101715.19;;;6.33;100.00
72570;BME280;60594;50.204;8.844;2022-11-12T03:24:51;101709.84;;;6.35;100.00
72570;BME280;60594;50.204;8.844;2022-11-12T03:27:36;101706.22;;;6.37;100.00
72570;BME280;60594;50.204;8.844;2022-11-12T03:30:20;101705.34;;;6.37;100.00
72570;BME280;60594;50.204;8.844;2022-11-12T03:33:07;101704.78;;;6.29;100.00
72570;BME280;60594;50.204;8.844;2022-11-12T03:35:53;101703.91;;;6.28;100.00
72570;BME280;60594;50.204;8.844;2022-11-12T03:38:38;101699.31;;;6.10;100.00
72570;BME280;60594;50.204;8.844;2022-11-12T03:41:23;101705.44;;;5.65;100.00
72570;BME280;60594;50.204;8.844;2022-11-12T03:44:08;101705.69;;;5.33;100.00
72570;BME280;60594;50.204;8.844;2022-11-12T03:46:53;101696.31;;;5.24;100.00
72570;BME280;60594;50.204;8.844;2022-11-12T03:49:38;101688.03;;;5.09;100.00
72570;BME280;60594;50.204;8.844;2022-11-12T03:52:23;101705.81;;;5.04;100.00
72570;BME280;60594;50.204;8.844;2022-11-12T03:55:08;101698.81;;;5.03;100.00
72570;BME280;60594;50.204;8.844;2022-11-12T03:57:54;101690.91;;;5.03;100.00
72570;BME280;60594;50.204;8.844;2022-11-12T04:00:40;101695.84;;;5.12;100.00
72570;BME280;60594;50.204;8.844;2022-11-12T04:03:24;101704.00;;;5.06;100.00
72570;BME280;60594;50.204;8.844;2022-11-12T04:06:09;101709.88;;;5.14;100.00
72570;BME280;60594;50.204;8.844;2022-11-12T04:09:13;101709.63;;;5.21;100.00
72570;BME280;60594;50.204;8.844;2022-11-12T04:11:58;101718.47;;;5.20;100.00
72570;BME280;60594;50.204;8.844;2022-11-12T04:15:03;101708.72;;;5.22;100.00
72570;BME280;60594;50.204;8.844;2022-11-12T04:17:49;101708.88;;;5.42;100.00
72570;BME280;60594;50.204;8.844;2022-11-12T04:20:52;101709.94;;;5.61;100.00
72570;BME280;60594;50.204;8.844;2022-11-12T04:23:56;101707.84;;;5.71;100.00
72570;BME280;60594;50.204;8.844;2022-11-12T04:26:41;101699.00;;;5.72;100.00
72570;BME280;60594;50.204;8.844;2022-11-12T04:29:25;101707.69;;;5.75;100.00
72570;BME280;60594;50.204;8.844;2022-11-12T04:32:31;101712.75;;;5.83;100.00
72570;BME280;60594;50.204;8.844;2022-11-12T04:35:17;101719.00;;;5.79;100.00
72570;BME280;60594;50.204;8.844;2022-11-12T04:38:02;101716.53;;;5.74;100.00
72570;BME280;60594;50.204;8.844;2022-11-12T04:40:48;101712.75;;;5.83;100.00
72570;BME280;60594;50.204;8.844;2022-11-12T04:43:51;101714.41;;;5.85;100.00
72570;BME280;60594;50.204;8.844;2022-11-12T04:46:55;101719.50;;;5.90;100.00
72570;BME280;60594;50.204;8.844;2022-11-12T04:49:39;101711.63;;;5.88;100.00
72570;BME280;60594;50.204;8.844;2022-11-12T04:52:25;101715.44;;;5.81;100.00
72570;BME280;60594;50.204;8.844;2022-11-12T04:55:10;101717.16;;;5.82;100.00
72570;BME280;60594;50.204;8.844;2022-11-12T04:57:55;101708.34;;;5.82;100.00
72570;BME280;60594;50.204;8.844;2022-11-12T05:00:40;101715.44;;;5.81;100.00
72570;BME280;60594;50.204;8.844;2022-11-12T05:03:25;101717.16;;;5.58;100.00
72570;BME280;60594;50.204;8.844;2022-11-12T05:06:10;101708.13;;;5.39;100.00
72570;BME280;60594;50.204;8.844;2022-11-12T05:09:14;101706.66;;;5.55;100.00
72570;BME280;60594;50.204;8.844;2022-11-12T05:11:59;101704.03;;;5.55;100.00
72570;BME280;60594;50.204;8.844;2022-11-12T05:14:55;101708.09;;;5.65;100.00
72570;BME280;60594;50.204;8.844;2022-11-12T05:17:41;101700.25;;;5.62;100.00
72570;BME280;60594;50.204;8.844;2022-11-12T05:20:28;101701.91;;;5.64;100.00
72570;BME280;60594;50.204;8.844;2022-11-12T05:23:12;101704.34;;;5.46;100.00
72570;BME280;60594;50.204;8.844;2022-11-12T05:25:57;101703.66;;;5.41;100.00
72570;BME280;60594;50.204;8.844;2022-11-12T05:28:42;101707.22;;;5.40;100.00
72570;BME280;60594;50.204;8.844;2022-11-12T05:31:29;101702.47;;;5.25;100.00
72570;BME280;60594;50.204;8.844;2022-11-12T05:34:17;101708.59;;;5.25;100.00
72570;BME280;60594;50.204;8.844;2022-11-12T05:37:04;101721.31;;;4.88;100.00
72570;BME280;60594;50.204;8.844;2022-11-12T05:39:50;101726.25;;;4.45;100.00
72570;BME280;60594;50.204;8.844;2022-11-12T05:42:37;101730.13;;;4.61;100.00
72570;BME280;60594;50.204;8.844;2022-11-12T05:45:22;101719.84;;;4.80;100.00
72570;BME280;60594;50.204;8.844;2022-11-12T05:48:07;101716.81;;;4.92;100.00
72570;BME280;60594;50.204;8.844;2022-11-12T05:50:53;101723.19;;;4.85;100.00
72570;BME280;60594;50.204;8.844;2022-11-12T05:53:39;101720.09;;;4.98;100.00
72570;BME280;60594;50.204;8.844;2022-11-12T05:56:24;101721.53;;;4.82;100.00
72570;BME280;60594;50.204;8.844;2022-11-12T05:59:12;101719.19;;;4.99;100.00
72570;BME280;60594;50.204;8.844;2022-11-12T06:01:58;101712.53;;;5.14;100.00
72570;BME280;60594;50.204;8.844;2022-11-12T06:04:43;101715.81;;;5.20;100.00
72570;BME280;60594;50.204;8.844;2022-11-12T06:07:28;101704.50;;;5.17;100.00
72570;BME280;60594;50.204;8.844;2022-11-12T06:10:14;101726.47;;;4.65;100.00
72570;BME280;60594;50.204;8.844;2022-11-12T06:12:59;101723.09;;;4.33;100.00
72570;BME280;60594;50.204;8.844;2022-11-12T06:15:44;101719.91;;;4.51;100.00
72570;BME280;60594;50.204;8.844;2022-11-12T06:18:29;101720.25;;;4.66;100.00
72570;BME280;60594;50.204;8.844;2022-11-12T06:21:17;101722.63;;;4.75;100.00
72570;BME280;60594;50.204;8.844;2022-11-12T06:24:08;101731.34;;;4.50;100.00
72570;BME280;60594;50.204;8.844;2022-11-12T06:26:54;101733.63;;;4.34;100.00
72570;BME280;60594;50.204;8.844;2022-11-12T06:29:39;101738.78;;;4.65;100.00
72570;BME280;60594;50.204;8.844;2022-11-12T06:32:24;101730.66;;;4.45;100.00
72570;BME280;60594;50.204;8.844;2022-11-12T06:35:09;101736.34;;;4.31;100.00
72570;BME280;60594;50.204;8.844;2022-11-12T06:37:54;101733.91;;;4.53;100.00
72570;BME280;60594;50.204;8.844;2022-11-12T06:40:40;101728.56;;;4.82;100.00
72570;BME280;60594;50.204;8.844;2022-11-12T06:43:27;101735.34;;;4.90;100.00
72570;BME280;60594;50.204;8.844;2022-11-12T06:46:14;101736.09;;;4.94;100.00
72570;BME280;60594;50.204;8.844;2022-11-12T06:49:01;101736.13;;;4.92;100.00
72570;BME280;60594;50.204;8.844;2022-11-12T06:51:49;101740.81;;;5.10;100.00
72570;BME280;60594;50.204;8.844;2022-11-12T06:54:34;101741.59;;;5.14;100.00
72570;BME280;60594;50.204;8.844;2022-11-12T06:57:19;101745.53;;;5.01;100.00
72570;BME280;60594;50.204;8.844;2022-11-12T07:00:05;101738.72;;;4.94;100.00
72570;BME280;60594;50.204;8.844;2022-11-12T07:02:50;101751.34;;;4.58;100.00
72570;BME280;60594;50.204;8.844;2022-11-12T07:05:37;101755.03;;;4.53;100.00
72570;BME280;60594;50.204;8.844;2022-11-12T07:08:23;101754.63;;;4.65;100.00
72570;BME280;60594;50.204;8.844;2022-11-12T07:11:09;101760.56;;;4.73;100.00
72570;BME280;60594;50.204;8.844;2022-11-12T07:13:54;101758.03;;;4.41;100.00
72570;BME280;60594;50.204;8.844;2022-11-12T07:16:39;101766.59;;;4.49;100.00
72570;BME280;60594;50.204;8.844;2022-11-12T07:19:24;101768.50;;;4.44;100.00
72570;BME280;60594;50.204;8.844;2022-11-12T07:22:10;101758.50;;;4.55;100.00
72570;BME280;60594;50.204;8.844;2022-11-12T07:24:55;101759.25;;;4.29;100.00
72570;BME280;60594;50.204;8.844;2022-11-12T07:27:40;101759.13;;;4.05;100.00
72570;BME280;60594;50.204;8.844;2022-11-12T07:30:25;101759.50;;;3.91;100.00
72570;BME280;60594;50.204;8.844;2022-11-12T07:33:11;101755.03;;;4.24;100.00
72570;BME280;60594;50.204;8.844;2022-11-12T07:36:04;101755.06;;;4.51;100.00
72570;BME280;60594;50.204;8.844;2022-11-12T07:38:52;101749.31;;;4.66;100.00
72570;BME280;60594;50.204;8.844;2022-11-12T07:41:37;101748.63;;;4.87;100.00
72570;BME280;60594;50.204;8.844;2022-11-12T07:44:22;101739.47;;;4.99;100.00
72570;BME280;60594;50.204;8.844;2022-11-12T07:47:11;101736.41;;;4.85;100.00
72570;BME280;60594;50.204;8.844;2022-11-12T07:49:56;101751.47;;;4.54;100.00
72570;BME280;60594;50.204;8.844;2022-11-12T07:52:41;101753.75;;;4.66;100.00
72570;BME280;60594;50.204;8.844;2022-11-12T07:55:26;101748.41;;;4.67;100.00
72570;BME280;60594;50.204;8.844;2022-11-12T07:58:11;101751.41;;;4.83;100.00
72570;BME280;60594;50.204;8.844;2022-11-12T08:00:57;101739.47;;;4.99;100.00
72570;BME280;60594;50.204;8.844;2022-11-12T08:03:42;101746.88;;;5.14;100.00
72570;BME280;60594;50.204;8.844;2022-11-12T08:06:29;101743.13;;;5.21;100.00
72570;BME280;60594;50.204;8.844;2022-11-12T08:09:14;101745.53;;;5.27;100.00
72570;BME280;60594;50.204;8.844;2022-11-12T08:12:00;101748.41;;;5.21;100.00
72570;BME280;60594;50.204;8.844;2022-11-12T08:14:45;101758.16;;;5.19;100.00
72570;BME280;60594;50.204;8.844;2022-11-12T08:17:31;101752.06;;;5.17;100.00
72570;BME280;60594;50.204;8.844;2022-11-12T08:20:16;101758.00;;;4.97;100.00
72570;BME280;60594;50.204;8.844;2022-11-12T08:23:02;101766.41;;;5.10;100.00
72570;BME280;60594;50.204;8.844;2022-11-12T08:25:47;101760.38;;;5.05;100.00
72570;BME280;60594;50.204;8.844;2022-11-12T08:28:35;101757.22;;;5.20;100.00
72570;BME280;60594;50.204;8.844;2022-11-12T08:31:21;101761.06;;;5.37;100.00
72570;BME280;60594;50.204;8.844;2022-11-12T08:34:07;101756.50;;;5.41;100.00
72570;BME280;60594;50.204;8.844;2022-11-12T08:36:58;101751.41;;;5.35;100.00
72570;BME280;60594;50.204;8.844;2022-11-12T08:39:44;101744.22;;;5.40;100.00
72570;BME280;60594;50.204;8.844;2022-11-12T08:42:29;101744.06;;;5.44;100.00
72570;BME280;60594;50.204;8.844;2022-11-12T08:45:20;101747.75;;;4.87;100.00
72570;BME280;60594;50.204;8.844;2022-11-12T08:48:09;101761.19;;;4.81;100.00
72570;BME280;60594;50.204;8.844;2022-11-12T08:50:55;101753.69;;;4.95;100.00
72570;BME280;60594;50.204;8.844;2022-11-12T08:53:40;101748.91;;;5.06;100.00
72570;BME280;60594;50.204;8.844;2022-11-12T08:56:26;101745.63;;;4.98;100.00
72570;BME280;60594;50.204;8.844;2022-11-12T08:59:11;101752.34;;;4.82;100.00
72570;BME280;60594;50.204;8.844;2022-11-12T09:01:59;101757.34;;;4.63;100.00
72570;BME280;60594;50.204;8.844;2022-11-12T09:04:44;101764.44;;;4.61;100.00
72570;BME280;60594;50.204;8.844;2022-11-12T09:07:30;101753.25;;;4.53;100.00
72570;BME280;60594;50.204;8.844;2022-11-12T09:10:19;101758.97;;;4.40;100.00
72570;BME280;60594;50.204;8.844;2022-11-12T09:13:04;101761.66;;;4.38;100.00
72570;BME280;60594;50.204;8.844;2022-11-12T09:15:50;101749.88;;;4.21;100.00
72570;BME280;60594;50.204;8.844;2022-11-12T09:18:36;101743.28;;;4.05;100.00
72570;BME280;60594;50.204;8.844;2022-11-12T09:21:20;101746.22;;;4.25;100.00
72570;BME280;60594;50.204;8.844;2022-11-12T09:24:08;101752.63;;;4.45;100.00
72570;BME280;60594;50.204;8.844;2022-11-12T09:26:54;101752.47;;;4.77;100.00
72570;BME280;60594;50.204;8.844;2022-11-12T09:29:40;101751.09;;;4.66;100.00
72570;BME280;60594;50.204;8.844;2022-11-12T09:32:24;101746.88;;;4.88;100.00
72570;BME280;60594;50.204;8.844;2022-11-12T09:35:10;101753.41;;;5.02;100.00
72570;BME280;60594;50.204;8.844;2022-11-12T09:37:56;101750.53;;;5.10;100.00
72570;BME280;60594;50.204;8.844;2022-11-12T09:43:47;101747.28;;;5.02;100.00
72570;BME280;60594;50.204;8.844;2022-11-12T09:47:00;101745.31;;;5.08;100.00
72570;BME280;60594;50.204;8.844;2022-11-12T09:49:54;101743.91;;;4.97;100.00
72570;BME280;60594;50.204;8.844;2022-11-12T09:52:44;101764.41;;;4.63;100.00
72570;BME280;60594;50.204;8.844;2022-11-12T09:55:39;101763.81;;;4.53;100.00
72570;BME280;60594;50.204;8.844;2022-11-12T09:58:26;101760.63;;;4.42;100.00
72570;BME280;60594;50.204;8.844;2022-11-12T10:01:15;101757.63;;;4.54;100.00
72570;BME280;60594;50.204;8.844;2022-11-12T10:16:08;101742.66;;;4.55;100.00
72570;BME280;60594;50.204;8.844;2022-11-12T10:19:36;101743.63;;;4.52;100.00
72570;BME280;60594;50.204;8.844;2022-11-12T10:22:43;101734.91;;;4.76;100.00
72570;BME280;60594;50.204;8.844;2022-11-12T10:25:36;101738.59;;;4.98;100.00
72570;BME280;60594;50.204;8.844;2022-11-12T10:28:28;101739.69;;;5.17;100.00
72570;BME280;60594;50.204;8.844;2022-11-12T10:31:17;101732.50;;;5.22;100.00
72570;BME280;60594;50.204;8.844;2022-11-12T10:37:05;101715.78;;;5.46;100.00
72570;BME280;60594;50.204;8.844;2022-11-12T10:39:52;101720.00;;;5.52;100.00
72570;BME280;60594;50.204;8.844;2022-11-12T10:43:41;101712.38;;;5.67;100.00
72570;BME280;60594;50.204;8.844;2022-11-12T10:46:16;101721.13;;;5.69;100.00
72570;BME280;60594;50.204;8.844;2022-11-12T10:51:58;101718.22;;;5.77;100.00
72570;BME280;60594;50.204;8.844;2022-11-12T10:54:43;101710.16;;;5.80;100.00
72570;BME280;60594;50.204;8.844;2022-11-12T10:57:28;101711.69;;;5.87;100.00
72570;BME280;60594;50.204;8.844;2022-11-12T11:00:19;101709.63;;;5.95;100.00
72570;BME280;60594;50.204;8.844;2022-11-12T11:03:14;101708.03;;;5.91;100.00
72570;BME280;60594;50.204;8.844;2022-11-12T11:11:57;101711.94;;;5.79;100.00
72570;BME280;60594;50.204;8.844;2022-11-12T11:14:42;101705.78;;;5.79;100.00
72570;BME280;60594;50.204;8.844;2022-11-12T11:17:27;101712.78;;;5.81;100.00
72570;BME280;60594;50.204;8.844;2022-11-12T11:20:24;101701.97;;;5.87;100.00
72570;BME280;60594;50.204;8.844;2022-11-12T11:23:25;101704.41;;;5.93;100.00
72570;BME280;60594;50.204;8.844;2022-11-12T11:26:45;101696.94;;;5.80;100.00
72570;BME280;60594;50.204;8.844;2022-11-12T11:45:17;101679.84;;;5.16;100.00
72570;BME280;60594;50.204;8.844;2022-11-12T11:57:22;101665.41;;;5.51;100.00
72570;BME280;60594;50.204;8.844;2022-11-12T12:00:22;101665.56;;;5.69;100.00
72570;BME280;60594;50.204;8.844;2022-11-12T12:03:23;101668.28;;;5.68;100.00
72570;BME280;60594;50.204;8.844;2022-11-12T12:06:18;101666.47;;;5.45;100.00
72570;BME280;60594;50.204;8.844;2022-11-12T12:09:43;101672.47;;;5.73;100.00
72570;BME280;60594;50.204;8.844;2022-11-12T12:13:49;101660.06;;;5.52;100.00
72570;BME280;60594;50.204;8.844;2022-11-12T12:21:57;101659.41;;;5.93;100.00
72570;BME280;60594;50.204;8.844;2022-11-12T12:24:49;101653.38;;;6.13;100.00
72570;BME280;60594;50.204;8.844;2022-11-12T12:27:38;101643.50;;;6.16;100.00
72570;BME280;60594;50.204;8.844;2022-11-12T12:30:34;101642.66;;;5.93;100.00
72570;BME280;60594;50.204;8.844;2022-11-12T12:33:34;101640.78;;;5.96;100.00
72570;BME280;60594;50.204;8.844;2022-11-12T12:36:30;101628.06;;;6.27;100.00
72570;BME280;60594;50.204;8.844;2022-11-12T12:39:24;101637.06;;;6.45;100.00
72570;BME280;60594;50.204;8.844;2022-11-12T12:42:42;101633.53;;;6.23;100.00
72570;BME280;60594;50.204;8.844;2022-11-12T12:48:33;101625.88;;;5.94;100.00
72570;BME280;60594;50.204;8.844;2022-11-12T12:51:20;101628.00;;;6.07;100.00
72570;BME280;60594;50.204;8.844;2022-11-12T12:57:35;101614.16;;;6.44;100.00
72570;BME280;60594;50.204;8.844;2022-11-12T13:00:39;101607.19;;;6.41;100.00
72570;BME280;60594;50.204;8.844;2022-11-12T13:06:37;101610.03;;;6.58;100.00
72570;BME280;60594;50.204;8.844;2022-11-12T13:09:24;101603.31;;;6.50;100.00
72570;BME280;60594;50.204;8.844;2022-11-12T13:12:10;101595.88;;;6.16;100.00
72570;BME280;60594;50.204;8.844;2022-11-12T13:15:11;101605.28;;;6.02;100.00
72570;BME280;60594;50.204;8.844;2022-11-12T13:17:56;101600.66;;;6.07;100.00
72570;BME280;60594;50.204;8.844;2022-11-12T13:20:41;101587.50;;;6.27;100.00
72570;BME280;60594;50.204;8.844;2022-11-12T13:26:54;101592.94;;;6.24;100.00
72570;BME280;60594;50.204;8.844;2022-11-12T13:29:41;101596.00;;;6.35;100.00
72570;BME280;60594;50.204;8.844;2022-11-12T13:35:39;101589.69;;;6.16;100.00
72570;BME280;60594;50.204;8.844;2022-11-12T13:38:24;101588.66;;;6.41;100.00
72570;BME280;60594;50.204;8.844;2022-11-12T13:43:55;101584.50;;;6.56;100.00
72570;BME280;60594;50.204;8.844;2022-11-12T13:46:41;101589.38;;;6.66;100.00
72570;BME280;60594;50.204;8.844;2022-11-12T13:49:28;101582.09;;;6.71;100.00
72570;BME280;60594;50.204;8.844;2022-11-12T13:52:14;101580.44;;;6.69;100.00
72570;BME280;60594;50.204;8.844;2022-11-12T13:55:01;101579.38;;;6.73;100.00
72570;BME280;60594;50.204;8.844;2022-11-12T13:57:55;101573.44;;;6.68;100.00
72570;BME280;60594;50.204;8.844;2022-11-12T14:00:50;101581.09;;;6.74;100.00
72570;BME280;60594;50.204;8.844;2022-11-12T14:03:42;101579.38;;;6.53;100.00
72570;BME280;60594;50.204;8.844;2022-11-12T14:06:36;101575.47;;;6.20;100.00
72570;BME280;60594;50.204;8.844;2022-11-12T14:13:05;101576.25;;;6.63;100.00
72570;BME280;60594;50.204;8.844;2022-11-12T14:16:42;101572.03;;;6.79;100.00
72570;BME280;60594;50.204;8.844;2022-11-12T14:22:18;101567.13;;;6.90;100.00
72570;BME280;60594;50.204;8.844;2022-11-12T14:25:09;101568.72;;;6.74;100.00
72570;BME280;60594;50.204;8.844;2022-11-12T14:27:56;101560.25;;;6.86;100.00
72570;BME280;60594;50.204;8.844;2022-11-12T14:30:43;101559.13;;;6.92;100.00
72570;BME280;60594;50.204;8.844;2022-11-12T14:33:30;101557.72;;;7.03;100.00
72570;BME280;60594;50.204;8.844;2022-11-12T14:36:16;101540.63;;;7.11;100.00
72570;BME280;60594;50.204;8.844;2022-11-12T14:39:02;101545.75;;;7.13;100.00
72570;BME280;60594;50.204;8.844;2022-11-12T14:41:48;101548.34;;;7.15;100.00
72570;BME280;60594;50.204;8.844;2022-11-12T14:44:35;101544.84;;;7.15;100.00
72570;BME280;60594;50.204;8.844;2022-11-12T14:47:22;101544.84;;;7.15;100.00
72570;BME280;60594;50.204;8.844;2022-11-12T14:50:20;101554.09;;;7.25;100.00
72570;BME280;60594;50.204;8.844;2022-11-12T14:54:00;101541.53;;;7.30;100.00
72570;BME280;60594;50.204;8.844;2022-11-12T14:59:19;101545.75;;;7.13;100.00
72570;BME280;60594;50.204;8.844;2022-11-12T15:02:08;101543.06;;;7.15;100.00
72570;BME280;60594;50.204;8.844;2022-11-12T15:05:01;101541.41;;;7.13;100.00
72570;BME280;60594;50.204;8.844;2022-11-12T15:08:03;101542.97;;;7.17;100.00
72570;BME280;60594;50.204;8.844;2022-11-12T15:10:49;101537.22;;;7.07;100.00
72570;BME280;60594;50.204;8.844;2022-11-12T15:13:38;101550.63;;;7.04;100.00
72570;BME280;60594;50.204;8.844;2022-11-12T15:16:31;101559.84;;;6.95;100.00
72570;BME280;60594;50.204;8.844;2022-11-12T15:19:22;101553.69;;;6.95;100.00
72570;BME280;60594;50.204;8.844;2022-11-12T15:22:18;101551.28;;;6.89;100.00
72570;BME280;60594;50.204;8.844;2022-11-12T15:25:29;101549.56;;;6.88;100.00
72570;BME280;60594;50.204;8.844;2022-11-12T15:28:22;101550.44;;;6.88;100.00
72570;BME280;60594;50.204;8.844;2022-11-12T15:31:17;101545.88;;;6.92;100.00
72570;BME280;60594;50.204;8.844;2022-11-12T15:34:25;101540.28;;;6.78;100.00
72570;BME280;60594;50.204;8.844;2022-11-12T15:37:23;101534.47;;;6.70;100.00
72570;BME280;60594;50.204;8.844;2022-11-12T15:40:15;101528.78;;;6.59;100.00
72570;BME280;60594;50.204;8.844;2022-11-12T15:43:02;101521.81;;;6.56;100.00
72570;BME280;60594;50.204;8.844;2022-11-12T15:45:49;101527.94;;;6.58;100.00
72570;BME280;60594;50.204;8.844;2022-11-12T15:48:34;101517.88;;;6.25;100.00
72570;BME280;60594;50.204;8.844;2022-11-12T15:51:19;101516.13;;;6.25;100.00
72570;BME280;60594;50.204;8.844;2022-11-12T15:54:04;101508.31;;;6.42;100.00
72570;BME280;60594;50.204;8.844;2022-11-12T15:56:49;101501.63;;;6.54;100.00
72570;BME280;60594;50.204;8.844;2022-11-12T15:59:34;101509.31;;;6.60;100.00
72570;BME280;60594;50.204;8.844;2022-11-12T16:02:20;101510.09;;;6.62;100.00
72570;BME280;60594;50.204;8.844;2022-11-12T16:05:11;101503.88;;;6.63;100.00
72570;BME280;60594;50.204;8.844;2022-11-12T16:07:57;101514.28;;;6.67;100.00
72570;BME280;60594;50.204;8.844;2022-11-12T16:10:43;101513.75;;;6.79;100.00
72570;BME280;60594;50.204;8.844;2022-11-12T16:13:31;101511.56;;;6.69;100.00